sensor_id;sensor_type;location;lat;lon;timestamp;temperature;humidity
9984;DHT22;16737;50.932;6.780;2022-10-03T00:02:40;14.40;96.10
9984;DHT22;16737;50.932;6.780;2022-10-03T00:05:52;14.40;96.10
9984;DHT22;16737;50.932;6.780;2022-10-03T00:11:45;14.30;96.20
9984;DHT22;16737;50.932;6.780;2022-10-03T00:14:29;14.30;96.10
9984;DHT22;16737;50.932;6.780;2022-10-03T00:17:09;14.30;96.20
9984;DHT22;16737;50.932;6.780;2022-10-03T00:19:45;14.20;96.10
9984;DHT22;16737;50.932;6.780;2022-10-03T00:22:26;14.20;96.20
9984;DHT22;16737;50.932;6.780;2022-10-03T00:25:13;14.20;96.30
9984;DHT22;16737;50.932;6.780;2022-10-03T00:28:03;14.20;96.30
9984;DHT22;16737;50.932;6.780;2022-10-03T00:31:02;14.20;96.40
9984;DHT22;16737;50.932;6.780;2022-10-03T00:33:47;14.20;96.50
9984;DHT22;16737;50.932;6.780;2022-10-03T00:36:29;14.10;96.30
9984;DHT22;16737;50.932;6.780;2022-10-03T00:39:31;14.10;96.30
9984;DHT22;16737;50.932;6.780;2022-10-03T00:52:34;14.10;96.60
9984;DHT22;16737;50.932;6.780;2022-10-03T00:55:19;14.10;96.60
9984;DHT22;16737;50.932;6.780;2022-10-03T00:58:06;14.10;96.50
9984;DHT22;16737;50.932;6.780;2022-10-03T01:00:49;14.10;96.70
9984;DHT22;16737;50.932;6.780;2022-10-03T01:03:33;14.10;96.70
9984;DHT22;16737;50.932;6.780;2022-10-03T01:06:20;14.10;96.80
9984;DHT22;16737;50.932;6.780;2022-10-03T01:09:19;14.10;96.80
9984;DHT22;16737;50.932;6.780;2022-10-03T01:12:19;14.20;96.90
9984;DHT22;16737;50.932;6.780;2022-10-03T01:15:08;14.20;96.80
9984;DHT22;16737;50.932;6.780;2022-10-03T01:17:53;14.20;96.80
9984;DHT22;16737;50.932;6.780;2022-10-03T01:20:43;14.20;96.80
9984;DHT22;16737;50.932;6.780;2022-10-03T01:23:42;14.20;96.80
9984;DHT22;16737;50.932;6.780;2022-10-03T01:26:37;14.20;96.80
9984;DHT22;16737;50.932;6.780;2022-10-03T01:29:21;14.20;96.70
9984;DHT22;16737;50.932;6.780;2022-10-03T01:32:16;14.20;96.70
9984;DHT22;16737;50.932;6.780;2022-10-03T01:34:53;14.20;96.70
9984;DHT22;16737;50.932;6.780;2022-10-03T01:37:36;14.20;97.00
9984;DHT22;16737;50.932;6.780;2022-10-03T01:40:16;14.20;96.70
9984;DHT22;16737;50.932;6.780;2022-10-03T01:42:59;14.20;96.80
9984;DHT22;16737;50.932;6.780;2022-10-03T01:45:46;14.20;96.80
9984;DHT22;16737;50.932;6.780;2022-10-03T01:48:23;14.20;96.80
9984;DHT22;16737;50.932;6.780;2022-10-03T01:51:02;14.20;96.80
9984;DHT22;16737;50.932;6.780;2022-10-03T01:53:43;14.20;96.80
9984;DHT22;16737;50.932;6.780;2022-10-03T01:56:26;14.20;96.80
9984;DHT22;16737;50.932;6.780;2022-10-03T01:59:08;14.20;96.80
9984;DHT22;16737;50.932;6.780;2022-10-03T02:01:49;14.10;96.80
9984;DHT22;16737;50.932;6.780;2022-10-03T02:04:39;14.10;96.70
9984;DHT22;16737;50.932;6.780;2022-10-03T02:07:19;14.10;96.80
9984;DHT22;16737;50.932;6.780;2022-10-03T02:10:01;14.10;96.80
9984;DHT22;16737;50.932;6.780;2022-10-03T02:12:38;14.10;96.80
9984;DHT22;16737;50.932;6.780;2022-10-03T02:15:11;14.10;96.70
9984;DHT22;16737;50.932;6.780;2022-10-03T02:17:50;14.10;96.80
9984;DHT22;16737;50.932;6.780;2022-10-03T02:20:33;14.10;96.80
9984;DHT22;16737;50.932;6.780;2022-10-03T02:23:23;14.10;96.90
9984;DHT22;16737;50.932;6.780;2022-10-03T02:29:50;14.00;96.90
9984;DHT22;16737;50.932;6.780;2022-10-03T02:36:31;14.00;97.00
9984;DHT22;16737;50.932;6.780;2022-10-03T02:39:54;14.00;97.00
9984;DHT22;16737;50.932;6.780;2022-10-03T02:42:58;14.00;97.00
9984;DHT22;16737;50.932;6.780;2022-10-03T02:46:09;14.00;97.10
9984;DHT22;16737;50.932;6.780;2022-10-03T02:49:33;14.00;97.10
9984;DHT22;16737;50.932;6.780;2022-10-03T02:52:52;14.00;97.10
9984;DHT22;16737;50.932;6.780;2022-10-03T02:55:56;14.00;97.10
9984;DHT22;16737;50.932;6.780;2022-10-03T03:02:33;14.00;97.10
9984;DHT22;16737;50.932;6.780;2022-10-03T03:06:02;14.00;97.10
9984;DHT22;16737;50.932;6.780;2022-10-03T03:18:40;14.00;97.10
9984;DHT22;16737;50.932;6.780;2022-10-03T03:21:22;14.00;96.90
9984;DHT22;16737;50.932;6.780;2022-10-03T03:24:18;14.00;97.10
9984;DHT22;16737;50.932;6.780;2022-10-03T03:27:17;14.00;97.20
9984;DHT22;16737;50.932;6.780;2022-10-03T03:29:59;14.00;97.10
9984;DHT22;16737;50.932;6.780;2022-10-03T03:32:41;13.90;97.00
9984;DHT22;16737;50.932;6.780;2022-10-03T03:35:25;14.00;97.10
9984;DHT22;16737;50.932;6.780;2022-10-03T03:38:10;13.90;97.10
9984;DHT22;16737;50.932;6.780;2022-10-03T03:41:04;14.00;97.20
9984;DHT22;16737;50.932;6.780;2022-10-03T03:44:03;14.00;97.20
9984;DHT22;16737;50.932;6.780;2022-10-03T03:46:59;14.00;97.30
9984;DHT22;16737;50.932;6.780;2022-10-03T03:49:50;13.90;97.10
9984;DHT22;16737;50.932;6.780;2022-10-03T03:52:39;14.00;97.50
9984;DHT22;16737;50.932;6.780;2022-10-03T03:55:25;14.00;97.20
9984;DHT22;16737;50.932;6.780;2022-10-03T03:58:16;13.90;97.10
9984;DHT22;16737;50.932;6.780;2022-10-03T04:01:12;13.90;97.20
9984;DHT22;16737;50.932;6.780;2022-10-03T04:04:07;13.90;97.30
9984;DHT22;16737;50.932;6.780;2022-10-03T04:06:53;13.90;97.10
9984;DHT22;16737;50.932;6.780;2022-10-03T04:09:54;13.90;97.20
9984;DHT22;16737;50.932;6.780;2022-10-03T04:12:46;13.90;97.30
9984;DHT22;16737;50.932;6.780;2022-10-03T04:15:47;13.90;97.20
9984;DHT22;16737;50.932;6.780;2022-10-03T04:18:46;13.90;97.30
9984;DHT22;16737;50.932;6.780;2022-10-03T04:21:55;13.90;97.30
9984;DHT22;16737;50.932;6.780;2022-10-03T04:24:59;13.90;97.40
9984;DHT22;16737;50.932;6.780;2022-10-03T04:28:06;13.90;97.40
9984;DHT22;16737;50.932;6.780;2022-10-03T04:31:03;13.90;97.40
9984;DHT22;16737;50.932;6.780;2022-10-03T04:33:48;13.90;97.30
9984;DHT22;16737;50.932;6.780;2022-10-03T04:36:37;13.90;97.30
9984;DHT22;16737;50.932;6.780;2022-10-03T04:39:25;13.90;97.40
9984;DHT22;16737;50.932;6.780;2022-10-03T04:42:03;13.90;97.40
9984;DHT22;16737;50.932;6.780;2022-10-03T04:44:49;13.90;97.30
9984;DHT22;16737;50.932;6.780;2022-10-03T04:47:34;13.90;97.50
9984;DHT22;16737;50.932;6.780;2022-10-03T04:50:20;13.90;97.40
9984;DHT22;16737;50.932;6.780;2022-10-03T04:53:05;14.00;97.60
9984;DHT22;16737;50.932;6.780;2022-10-03T04:55:48;14.00;97.50
9984;DHT22;16737;50.932;6.780;2022-10-03T04:58:29;14.00;97.50
9984;DHT22;16737;50.932;6.780;2022-10-03T05:01:09;14.00;97.60
9984;DHT22;16737;50.932;6.780;2022-10-03T05:03:48;14.00;97.60
9984;DHT22;16737;50.932;6.780;2022-10-03T05:06:34;14.00;97.60
9984;DHT22;16737;50.932;6.780;2022-10-03T05:09:20;14.00;97.70
9984;DHT22;16737;50.932;6.780;2022-10-03T05:12:04;14.10;97.80
9984;DHT22;16737;50.932;6.780;2022-10-03T05:14:53;14.10;97.70
9984;DHT22;16737;50.932;6.780;2022-10-03T05:17:41;14.10;97.80
9984;DHT22;16737;50.932;6.780;2022-10-03T05:23:25;14.10;97.80
9984;DHT22;16737;50.932;6.780;2022-10-03T05:26:05;14.10;97.70
9984;DHT22;16737;50.932;6.780;2022-10-03T05:28:43;14.20;97.80
9984;DHT22;16737;50.932;6.780;2022-10-03T05:31:28;14.20;97.80
9984;DHT22;16737;50.932;6.780;2022-10-03T05:34:10;14.20;97.80
9984;DHT22;16737;50.932;6.780;2022-10-03T05:37:02;14.20;97.80
9984;DHT22;16737;50.932;6.780;2022-10-03T05:39:54;14.20;97.80
9984;DHT22;16737;50.932;6.780;2022-10-03T05:42:45;14.20;97.80
9984;DHT22;16737;50.932;6.780;2022-10-03T05:45:28;14.30;97.90
9984;DHT22;16737;50.932;6.780;2022-10-03T05:48:22;14.20;97.70
9984;DHT22;16737;50.932;6.780;2022-10-03T05:51:17;14.30;97.90
9984;DHT22;16737;50.932;6.780;2022-10-03T05:54:37;14.30;97.90
9984;DHT22;16737;50.932;6.780;2022-10-03T06:00:42;14.30;98.00
9984;DHT22;16737;50.932;6.780;2022-10-03T06:03:58;14.30;97.90
9984;DHT22;16737;50.932;6.780;2022-10-03T06:06:50;14.30;97.90
9984;DHT22;16737;50.932;6.780;2022-10-03T06:10:02;14.30;97.90
9984;DHT22;16737;50.932;6.780;2022-10-03T06:12:59;14.40;98.00
9984;DHT22;16737;50.932;6.780;2022-10-03T06:15:46;14.30;97.90
9984;DHT22;16737;50.932;6.780;2022-10-03T06:21:51;14.40;98.10
9984;DHT22;16737;50.932;6.780;2022-10-03T06:25:17;14.40;98.00
9984;DHT22;16737;50.932;6.780;2022-10-03T06:28:34;14.40;98.00
9984;DHT22;16737;50.932;6.780;2022-10-03T06:31:46;14.40;98.00
9984;DHT22;16737;50.932;6.780;2022-10-03T06:38:15;14.50;98.10
9984;DHT22;16737;50.932;6.780;2022-10-03T06:44:35;14.50;98.10
9984;DHT22;16737;50.932;6.780;2022-10-03T06:47:34;14.50;98.10
9984;DHT22;16737;50.932;6.780;2022-10-03T06:50:29;14.50;98.00
9984;DHT22;16737;50.932;6.780;2022-10-03T06:53:32;14.50;97.90
9984;DHT22;16737;50.932;6.780;2022-10-03T06:56:25;14.60;98.00
9984;DHT22;16737;50.932;6.780;2022-10-03T06:59:42;14.60;98.00
9984;DHT22;16737;50.932;6.780;2022-10-03T07:06:31;14.60;97.90
9984;DHT22;16737;50.932;6.780;2022-10-03T07:09:36;14.60;97.90
9984;DHT22;16737;50.932;6.780;2022-10-03T07:15:57;14.70;97.90
9984;DHT22;16737;50.932;6.780;2022-10-03T07:19:04;14.70;98.00
9984;DHT22;16737;50.932;6.780;2022-10-03T07:22:26;14.70;98.00
9984;DHT22;16737;50.932;6.780;2022-10-03T07:25:52;14.70;98.20
9984;DHT22;16737;50.932;6.780;2022-10-03T07:29:06;14.70;98.10
9984;DHT22;16737;50.932;6.780;2022-10-03T07:32:14;14.80;98.10
9984;DHT22;16737;50.932;6.780;2022-10-03T07:35:23;14.80;98.40
9984;DHT22;16737;50.932;6.780;2022-10-03T07:38:42;14.80;98.00
9984;DHT22;16737;50.932;6.780;2022-10-03T07:41:39;14.90;98.10
9984;DHT22;16737;50.932;6.780;2022-10-03T07:44:56;14.90;98.00
9984;DHT22;16737;50.932;6.780;2022-10-03T07:48:13;14.90;98.50
9984;DHT22;16737;50.932;6.780;2022-10-03T07:51:25;14.90;98.10
9984;DHT22;16737;50.932;6.780;2022-10-03T07:57:35;15.00;98.10
9984;DHT22;16737;50.932;6.780;2022-10-03T08:00:20;15.10;98.00
9984;DHT22;16737;50.932;6.780;2022-10-03T08:06:33;15.10;98.10
9984;DHT22;16737;50.932;6.780;2022-10-03T08:09:44;15.10;98.00
9984;DHT22;16737;50.932;6.780;2022-10-03T08:12:45;15.20;98.10
9984;DHT22;16737;50.932;6.780;2022-10-03T08:15:29;15.20;98.10
9984;DHT22;16737;50.932;6.780;2022-10-03T08:21:37;15.30;98.20
9984;DHT22;16737;50.932;6.780;2022-10-03T08:24:48;15.30;98.10
9984;DHT22;16737;50.932;6.780;2022-10-03T08:27:38;15.40;98.30
9984;DHT22;16737;50.932;6.780;2022-10-03T08:30:20;15.40;98.20
9984;DHT22;16737;50.932;6.780;2022-10-03T08:32:56;15.50;98.20
9984;DHT22;16737;50.932;6.780;2022-10-03T08:42:46;15.70;98.40
9984;DHT22;16737;50.932;6.780;2022-10-03T08:45:56;15.80;98.50
9984;DHT22;16737;50.932;6.780;2022-10-03T08:49:03;15.90;98.40
9984;DHT22;16737;50.932;6.780;2022-10-03T08:51:56;15.90;98.30
9984;DHT22;16737;50.932;6.780;2022-10-03T08:55:00;16.00;98.30
9984;DHT22;16737;50.932;6.780;2022-10-03T08:58:04;16.10;98.30
9984;DHT22;16737;50.932;6.780;2022-10-03T09:01:10;16.20;98.40
9984;DHT22;16737;50.932;6.780;2022-10-03T09:07:45;16.50;98.30
9984;DHT22;16737;50.932;6.780;2022-10-03T09:11:01;16.60;98.30
9984;DHT22;16737;50.932;6.780;2022-10-03T09:14:29;16.70;98.30
9984;DHT22;16737;50.932;6.780;2022-10-03T09:17:15;16.80;98.30
9984;DHT22;16737;50.932;6.780;2022-10-03T09:24:35;17.00;97.90
9984;DHT22;16737;50.932;6.780;2022-10-03T09:27:49;17.10;97.90
9984;DHT22;16737;50.932;6.780;2022-10-03T09:30:46;17.10;98.30
9984;DHT22;16737;50.932;6.780;2022-10-03T09:37:08;17.30;98.00
9984;DHT22;16737;50.932;6.780;2022-10-03T09:43:49;17.50;97.90
9984;DHT22;16737;50.932;6.780;2022-10-03T09:50:21;17.70;98.20
9984;DHT22;16737;50.932;6.780;2022-10-03T09:53:28;17.80;97.90
9984;DHT22;16737;50.932;6.780;2022-10-03T09:56:54;17.80;97.60
9984;DHT22;16737;50.932;6.780;2022-10-03T09:59:44;17.90;97.40
9984;DHT22;16737;50.932;6.780;2022-10-03T10:02:47;18.00;97.40
9984;DHT22;16737;50.932;6.780;2022-10-03T10:08:52;18.00;97.20
9984;DHT22;16737;50.932;6.780;2022-10-03T10:12:01;18.00;97.10
9984;DHT22;16737;50.932;6.780;2022-10-03T10:15:13;18.10;97.00
9984;DHT22;16737;50.932;6.780;2022-10-03T10:18:32;18.00;97.00
9984;DHT22;16737;50.932;6.780;2022-10-03T10:21:48;18.10;96.80
9984;DHT22;16737;50.932;6.780;2022-10-03T10:34:57;18.10;96.60
9984;DHT22;16737;50.932;6.780;2022-10-03T10:38:03;18.10;96.40
9984;DHT22;16737;50.932;6.780;2022-10-03T10:41:36;18.10;96.50
9984;DHT22;16737;50.932;6.780;2022-10-03T10:45:23;18.00;96.40
9984;DHT22;16737;50.932;6.780;2022-10-03T10:54:54;18.00;96.40
9984;DHT22;16737;50.932;6.780;2022-10-03T11:11:17;18.30;96.50
9984;DHT22;16737;50.932;6.780;2022-10-03T11:14:30;18.40;96.30
9984;DHT22;16737;50.932;6.780;2022-10-03T11:17:38;18.50;96.50
9984;DHT22;16737;50.932;6.780;2022-10-03T11:24:32;18.60;95.90
9984;DHT22;16737;50.932;6.780;2022-10-03T11:27:53;18.70;96.00
9984;DHT22;16737;50.932;6.780;2022-10-03T11:37:33;18.80;95.70
9984;DHT22;16737;50.932;6.780;2022-10-03T11:40:28;18.80;95.50
9984;DHT22;16737;50.932;6.780;2022-10-03T11:43:54;18.80;95.40
9984;DHT22;16737;50.932;6.780;2022-10-03T11:46:48;18.80;95.40
9984;DHT22;16737;50.932;6.780;2022-10-03T11:56:29;19.00;95.20
9984;DHT22;16737;50.932;6.780;2022-10-03T11:59:21;19.10;95.00
9984;DHT22;16737;50.932;6.780;2022-10-03T12:02:07;19.10;94.90
9984;DHT22;16737;50.932;6.780;2022-10-03T12:04:49;19.10;95.00
9984;DHT22;16737;50.932;6.780;2022-10-03T12:07:36;19.20;94.80
9984;DHT22;16737;50.932;6.780;2022-10-03T12:10:35;19.20;94.50
9984;DHT22;16737;50.932;6.780;2022-10-03T12:13:16;19.20;94.60
9984;DHT22;16737;50.932;6.780;2022-10-03T12:15:48;19.20;94.70
9984;DHT22;16737;50.932;6.780;2022-10-03T12:18:23;19.20;94.90
9984;DHT22;16737;50.932;6.780;2022-10-03T12:21:08;19.30;94.70
9984;DHT22;16737;50.932;6.780;2022-10-03T12:23:58;19.30;94.50
9984;DHT22;16737;50.932;6.780;2022-10-03T12:26:43;19.40;94.50
9984;DHT22;16737;50.932;6.780;2022-10-03T12:29:19;19.40;94.40
9984;DHT22;16737;50.932;6.780;2022-10-03T12:31:59;19.50;94.50
9984;DHT22;16737;50.932;6.780;2022-10-03T12:34:39;19.50;94.20
9984;DHT22;16737;50.932;6.780;2022-10-03T12:37:30;19.60;94.30
9984;DHT22;16737;50.932;6.780;2022-10-03T12:40:07;19.60;94.20
9984;DHT22;16737;50.932;6.780;2022-10-03T12:42:47;19.70;94.50
9984;DHT22;16737;50.932;6.780;2022-10-03T12:45:29;19.70;94.10
9984;DHT22;16737;50.932;6.780;2022-10-03T12:48:23;19.80;94.10
9984;DHT22;16737;50.932;6.780;2022-10-03T12:51:01;19.80;93.90
9984;DHT22;16737;50.932;6.780;2022-10-03T12:53:45;19.80;94.30
9984;DHT22;16737;50.932;6.780;2022-10-03T12:56:28;19.80;93.80
9984;DHT22;16737;50.932;6.780;2022-10-03T12:59:18;19.80;93.60
9984;DHT22;16737;50.932;6.780;2022-10-03T13:02:21;19.90;93.70
9984;DHT22;16737;50.932;6.780;2022-10-03T13:05:17;19.90;93.30
9984;DHT22;16737;50.932;6.780;2022-10-03T13:07:55;19.90;93.20
9984;DHT22;16737;50.932;6.780;2022-10-03T13:10:35;20.00;93.70
9984;DHT22;16737;50.932;6.780;2022-10-03T13:13:21;20.00;93.40
9984;DHT22;16737;50.932;6.780;2022-10-03T13:16:16;20.10;92.90
9984;DHT22;16737;50.932;6.780;2022-10-03T13:18:56;20.10;92.90
9984;DHT22;16737;50.932;6.780;2022-10-03T13:21:44;20.10;93.10
9984;DHT22;16737;50.932;6.780;2022-10-03T13:24:27;20.10;93.00
9984;DHT22;16737;50.932;6.780;2022-10-03T13:27:13;20.10;93.00
9984;DHT22;16737;50.932;6.780;2022-10-03T13:29:53;20.20;93.10
9984;DHT22;16737;50.932;6.780;2022-10-03T13:32:32;20.20;93.40
9984;DHT22;16737;50.932;6.780;2022-10-03T13:35:19;20.20;93.20
9984;DHT22;16737;50.932;6.780;2022-10-03T13:38:16;20.30;92.70
9984;DHT22;16737;50.932;6.780;2022-10-03T13:40:56;20.30;93.00
9984;DHT22;16737;50.932;6.780;2022-10-03T13:43:33;20.40;93.20
9984;DHT22;16737;50.932;6.780;2022-10-03T13:46:05;20.40;93.60
9984;DHT22;16737;50.932;6.780;2022-10-03T13:48:40;20.50;93.60
9984;DHT22;16737;50.932;6.780;2022-10-03T13:51:19;20.60;93.70
9984;DHT22;16737;50.932;6.780;2022-10-03T13:53:58;20.70;93.20
9984;DHT22;16737;50.932;6.780;2022-10-03T13:56:47;20.70;93.10
9984;DHT22;16737;50.932;6.780;2022-10-03T13:59:34;20.80;92.60
9984;DHT22;16737;50.932;6.780;2022-10-03T14:02:29;20.90;92.90
9984;DHT22;16737;50.932;6.780;2022-10-03T14:08:54;21.10;92.50
9984;DHT22;16737;50.932;6.780;2022-10-03T14:11:41;21.10;92.10
9984;DHT22;16737;50.932;6.780;2022-10-03T14:17:24;21.20;91.80
9984;DHT22;16737;50.932;6.780;2022-10-03T14:20:11;21.20;92.40
9984;DHT22;16737;50.932;6.780;2022-10-03T14:22:58;21.20;92.00
9984;DHT22;16737;50.932;6.780;2022-10-03T14:25:41;21.20;91.80
9984;DHT22;16737;50.932;6.780;2022-10-03T14:28:17;21.20;92.30
9984;DHT22;16737;50.932;6.780;2022-10-03T14:30:58;21.20;91.80
9984;DHT22;16737;50.932;6.780;2022-10-03T14:33:38;21.20;91.40
9984;DHT22;16737;50.932;6.780;2022-10-03T14:36:22;21.20;91.80
9984;DHT22;16737;50.932;6.780;2022-10-03T14:39:18;21.10;91.80
9984;DHT22;16737;50.932;6.780;2022-10-03T14:42:18;21.10;91.40
9984;DHT22;16737;50.932;6.780;2022-10-03T14:44:59;21.10;91.80
9984;DHT22;16737;50.932;6.780;2022-10-03T14:47:34;21.10;92.10
9984;DHT22;16737;50.932;6.780;2022-10-03T14:50:04;21.10;92.10
9984;DHT22;16737;50.932;6.780;2022-10-03T14:52:37;21.10;92.00
9984;DHT22;16737;50.932;6.780;2022-10-03T14:55:12;21.10;91.70
9984;DHT22;16737;50.932;6.780;2022-10-03T14:57:47;21.00;91.60
9984;DHT22;16737;50.932;6.780;2022-10-03T15:00:26;21.00;91.70
9984;DHT22;16737;50.932;6.780;2022-10-03T15:03:18;21.00;91.20
9984;DHT22;16737;50.932;6.780;2022-10-03T15:06:19;21.00;91.80
9984;DHT22;16737;50.932;6.780;2022-10-03T15:08:58;21.00;91.60
9984;DHT22;16737;50.932;6.780;2022-10-03T15:11:29;21.00;91.90
9984;DHT22;16737;50.932;6.780;2022-10-03T15:14:03;20.90;91.90
9984;DHT22;16737;50.932;6.780;2022-10-03T15:16:38;20.90;91.90
9984;DHT22;16737;50.932;6.780;2022-10-03T15:19:16;20.90;91.80
9984;DHT22;16737;50.932;6.780;2022-10-03T15:21:45;20.80;91.80
9984;DHT22;16737;50.932;6.780;2022-10-03T15:24:19;20.80;92.00
9984;DHT22;16737;50.932;6.780;2022-10-03T15:26:50;20.80;92.00
9984;DHT22;16737;50.932;6.780;2022-10-03T15:29:23;20.80;92.00
9984;DHT22;16737;50.932;6.780;2022-10-03T15:31:53;20.70;92.10
9984;DHT22;16737;50.932;6.780;2022-10-03T15:34:26;20.70;92.10
9984;DHT22;16737;50.932;6.780;2022-10-03T15:36:57;20.70;92.40
9984;DHT22;16737;50.932;6.780;2022-10-03T15:39:31;20.70;92.00
9984;DHT22;16737;50.932;6.780;2022-10-03T15:42:03;20.60;91.90
9984;DHT22;16737;50.932;6.780;2022-10-03T15:44:50;20.60;92.10
9984;DHT22;16737;50.932;6.780;2022-10-03T15:47:22;20.50;92.20
9984;DHT22;16737;50.932;6.780;2022-10-03T15:49:53;20.50;92.40
9984;DHT22;16737;50.932;6.780;2022-10-03T15:52:30;20.50;92.40
9984;DHT22;16737;50.932;6.780;2022-10-03T15:55:02;20.50;92.40
9984;DHT22;16737;50.932;6.780;2022-10-03T15:57:35;20.40;92.40
9984;DHT22;16737;50.932;6.780;2022-10-03T16:00:18;20.40;92.40
9984;DHT22;16737;50.932;6.780;2022-10-03T16:02:50;20.40;92.20
9984;DHT22;16737;50.932;6.780;2022-10-03T16:05:22;20.30;92.40
9984;DHT22;16737;50.932;6.780;2022-10-03T16:07:56;20.30;92.50
9984;DHT22;16737;50.932;6.780;2022-10-03T16:10:28;20.30;92.30
9984;DHT22;16737;50.932;6.780;2022-10-03T16:13:04;20.30;92.40
9984;DHT22;16737;50.932;6.780;2022-10-03T16:15:55;20.20;92.50
9984;DHT22;16737;50.932;6.780;2022-10-03T16:18:45;20.20;92.40
9984;DHT22;16737;50.932;6.780;2022-10-03T16:21:28;20.10;92.30
9984;DHT22;16737;50.932;6.780;2022-10-03T16:24:00;20.10;92.40
9984;DHT22;16737;50.932;6.780;2022-10-03T16:26:34;20.10;92.30
9984;DHT22;16737;50.932;6.780;2022-10-03T16:29:16;20.00;92.30
9984;DHT22;16737;50.932;6.780;2022-10-03T16:31:50;20.00;92.40
9984;DHT22;16737;50.932;6.780;2022-10-03T16:34:22;19.90;92.30
9984;DHT22;16737;50.932;6.780;2022-10-03T16:36:51;19.90;92.40
9984;DHT22;16737;50.932;6.780;2022-10-03T16:39:23;19.80;92.30
9984;DHT22;16737;50.932;6.780;2022-10-03T16:41:52;19.80;92.30
9984;DHT22;16737;50.932;6.780;2022-10-03T16:44:26;19.70;92.30
9984;DHT22;16737;50.932;6.780;2022-10-03T16:47:02;19.70;92.20
9984;DHT22;16737;50.932;6.780;2022-10-03T16:49:36;19.70;92.10
9984;DHT22;16737;50.932;6.780;2022-10-03T16:52:30;19.60;92.00
9984;DHT22;16737;50.932;6.780;2022-10-03T16:55:02;19.50;91.90
9984;DHT22;16737;50.932;6.780;2022-10-03T16:57:40;19.50;92.00
9984;DHT22;16737;50.932;6.780;2022-10-03T17:00:15;19.40;91.90
9984;DHT22;16737;50.932;6.780;2022-10-03T17:02:48;19.40;92.00
9984;DHT22;16737;50.932;6.780;2022-10-03T17:05:16;19.30;92.00
9984;DHT22;16737;50.932;6.780;2022-10-03T17:07:46;19.20;91.90
9984;DHT22;16737;50.932;6.780;2022-10-03T17:10:26;19.20;91.80
9984;DHT22;16737;50.932;6.780;2022-10-03T17:13:00;19.10;91.70
9984;DHT22;16737;50.932;6.780;2022-10-03T17:15:33;19.10;91.70
9984;DHT22;16737;50.932;6.780;2022-10-03T17:18:17;19.00;91.70
9984;DHT22;16737;50.932;6.780;2022-10-03T17:20:49;18.90;91.60
9984;DHT22;16737;50.932;6.780;2022-10-03T17:23:27;18.90;91.70
9984;DHT22;16737;50.932;6.780;2022-10-03T17:26:03;18.80;91.60
9984;DHT22;16737;50.932;6.780;2022-10-03T17:28:41;18.70;91.70
9984;DHT22;16737;50.932;6.780;2022-10-03T17:31:24;18.70;91.70
9984;DHT22;16737;50.932;6.780;2022-10-03T17:34:02;18.60;91.60
9984;DHT22;16737;50.932;6.780;2022-10-03T17:37:01;18.60;91.70
9984;DHT22;16737;50.932;6.780;2022-10-03T17:39:53;18.50;91.60
9984;DHT22;16737;50.932;6.780;2022-10-03T17:42:29;18.50;91.70
9984;DHT22;16737;50.932;6.780;2022-10-03T17:45:11;18.40;91.70
9984;DHT22;16737;50.932;6.780;2022-10-03T17:47:53;18.30;91.70
9984;DHT22;16737;50.932;6.780;2022-10-03T17:50:28;18.30;91.70
9984;DHT22;16737;50.932;6.780;2022-10-03T17:53:01;18.20;91.70
9984;DHT22;16737;50.932;6.780;2022-10-03T17:55:30;18.20;91.80
9984;DHT22;16737;50.932;6.780;2022-10-03T17:58:04;18.10;91.80
9984;DHT22;16737;50.932;6.780;2022-10-03T18:00:37;18.10;91.80
9984;DHT22;16737;50.932;6.780;2022-10-03T18:03:22;18.00;91.80
9984;DHT22;16737;50.932;6.780;2022-10-03T18:05:58;18.00;91.80
9984;DHT22;16737;50.932;6.780;2022-10-03T18:08:30;17.90;91.80
9984;DHT22;16737;50.932;6.780;2022-10-03T18:11:01;17.90;91.80
9984;DHT22;16737;50.932;6.780;2022-10-03T18:13:37;17.80;91.80
9984;DHT22;16737;50.932;6.780;2022-10-03T18:16:19;17.80;91.90
9984;DHT22;16737;50.932;6.780;2022-10-03T18:19:01;17.70;91.90
9984;DHT22;16737;50.932;6.780;2022-10-03T18:21:45;17.70;91.90
9984;DHT22;16737;50.932;6.780;2022-10-03T18:24:42;17.60;92.00
9984;DHT22;16737;50.932;6.780;2022-10-03T18:27:42;17.60;92.00
9984;DHT22;16737;50.932;6.780;2022-10-03T18:30:32;17.60;92.10
9984;DHT22;16737;50.932;6.780;2022-10-03T18:33:04;17.50;92.00
9984;DHT22;16737;50.932;6.780;2022-10-03T18:35:39;17.50;92.00
9984;DHT22;16737;50.932;6.780;2022-10-03T18:38:18;17.40;92.10
9984;DHT22;16737;50.932;6.780;2022-10-03T18:40:49;17.40;92.10
9984;DHT22;16737;50.932;6.780;2022-10-03T18:43:28;17.40;92.20
9984;DHT22;16737;50.932;6.780;2022-10-03T18:46:05;17.30;92.20
9984;DHT22;16737;50.932;6.780;2022-10-03T18:48:44;17.30;92.20
9984;DHT22;16737;50.932;6.780;2022-10-03T18:51:22;17.30;92.20
9984;DHT22;16737;50.932;6.780;2022-10-03T18:54:04;17.30;92.30
9984;DHT22;16737;50.932;6.780;2022-10-03T18:56:40;17.20;92.20
9984;DHT22;16737;50.932;6.780;2022-10-03T18:59:21;17.20;92.20
9984;DHT22;16737;50.932;6.780;2022-10-03T19:01:56;17.20;92.30
9984;DHT22;16737;50.932;6.780;2022-10-03T19:04:35;17.10;92.20
9984;DHT22;16737;50.932;6.780;2022-10-03T19:07:17;17.10;92.30
9984;DHT22;16737;50.932;6.780;2022-10-03T19:10:17;17.10;92.30
9984;DHT22;16737;50.932;6.780;2022-10-03T19:12:58;17.10;92.30
9984;DHT22;16737;50.932;6.780;2022-10-03T19:15:37;17.00;92.30
9984;DHT22;16737;50.932;6.780;2022-10-03T19:18:20;17.00;92.40
9984;DHT22;16737;50.932;6.780;2022-10-03T19:20:53;17.00;92.40
9984;DHT22;16737;50.932;6.780;2022-10-03T19:23:28;17.00;92.40
9984;DHT22;16737;50.932;6.780;2022-10-03T19:26:05;17.00;92.40
9984;DHT22;16737;50.932;6.780;2022-10-03T19:28:41;16.90;92.30
9984;DHT22;16737;50.932;6.780;2022-10-03T19:31:16;16.90;92.30
9984;DHT22;16737;50.932;6.780;2022-10-03T19:33:50;16.90;92.30
9984;DHT22;16737;50.932;6.780;2022-10-03T19:36:24;16.90;92.40
9984;DHT22;16737;50.932;6.780;2022-10-03T19:38:55;16.90;92.40
9984;DHT22;16737;50.932;6.780;2022-10-03T19:41:28;16.90;92.40
9984;DHT22;16737;50.932;6.780;2022-10-03T19:44:04;16.80;92.40
9984;DHT22;16737;50.932;6.780;2022-10-03T19:46:43;16.80;92.40
9984;DHT22;16737;50.932;6.780;2022-10-03T19:49:25;16.80;92.50
9984;DHT22;16737;50.932;6.780;2022-10-03T19:52:16;16.80;92.50
9984;DHT22;16737;50.932;6.780;2022-10-03T19:54:50;16.80;92.50
9984;DHT22;16737;50.932;6.780;2022-10-03T19:57:24;16.70;92.40
9984;DHT22;16737;50.932;6.780;2022-10-03T19:59:57;16.70;92.40
9984;DHT22;16737;50.932;6.780;2022-10-03T20:02:27;16.70;92.40
9984;DHT22;16737;50.932;6.780;2022-10-03T20:04:56;16.70;92.40
9984;DHT22;16737;50.932;6.780;2022-10-03T20:07:35;16.60;92.50
9984;DHT22;16737;50.932;6.780;2022-10-03T20:10:25;16.60;92.50
9984;DHT22;16737;50.932;6.780;2022-10-03T20:13:12;16.60;92.60
9984;DHT22;16737;50.932;6.780;2022-10-03T20:15:42;16.50;92.40
9984;DHT22;16737;50.932;6.780;2022-10-03T20:18:18;16.50;92.50
9984;DHT22;16737;50.932;6.780;2022-10-03T20:20:52;16.50;92.60
9984;DHT22;16737;50.932;6.780;2022-10-03T20:23:22;16.40;92.80
9984;DHT22;16737;50.932;6.780;2022-10-03T20:25:57;16.40;92.50
9984;DHT22;16737;50.932;6.780;2022-10-03T20:28:42;16.40;92.50